createdAt,value
2017-03-18T00:00:43.857Z,81.37
2017-03-18T00:01:44.391Z,81.56
2017-03-18T00:02:44.924Z,82.48
2017-03-18T00:03:45.468Z,84.87
2017-03-18T00:04:45.995Z,83.12
2017-03-18T00:05:46.527Z,84.17
2017-03-18T00:06:47.061Z,84.50
2017-03-18T00:07:47.607Z,84.71
2017-03-18T00:08:48.139Z,84.81
2017-03-18T00:09:48.671Z,86.65
2017-03-18T00:10:49.208Z,85.61
2017-03-18T00:11:49.747Z,85.93
2017-03-18T00:12:50.272Z,85.16
2017-03-18T00:13:50.954Z,82.75
2017-03-18T00:14:51.331Z,85.24
2017-03-18T00:15:51.861Z,83.62
2017-03-18T00:16:52.404Z,84.76
2017-03-18T00:17:52.933Z,83.51
2017-03-18T00:18:53.469Z,85.80
2017-03-18T00:19:53.995Z,83.99
2017-03-18T00:20:54.525Z,85.77
2017-03-18T00:21:55.057Z,86.41
2017-03-18T00:22:55.590Z,85.32
2017-03-18T00:23:56.124Z,86.91
2017-03-18T00:24:56.658Z,87.29
2017-03-18T00:25:57.188Z,84.97
2017-03-18T00:26:57.718Z,85.75
2017-03-18T00:27:58.259Z,85.69
2017-03-18T00:28:58.789Z,85.93
2017-03-18T00:29:59.325Z,83.83
2017-03-18T00:30:59.883Z,85.88
2017-03-18T00:32:00.399Z,85.32
2017-03-18T00:33:00.921Z,86.09
2017-03-18T00:34:01.452Z,87.53
2017-03-18T00:35:01.985Z,87.37
2017-03-18T00:36:02.523Z,87.32
2017-03-18T00:37:03.050Z,87.18
2017-03-18T00:38:03.582Z,86.65
2017-03-18T00:39:04.110Z,87.56
2017-03-18T00:40:04.652Z,88.62
2017-03-18T00:41:05.173Z,87.43
2017-03-18T00:42:05.709Z,88.07
2017-03-18T00:43:06.244Z,88.76
2017-03-18T00:44:06.776Z,89.27
2017-03-18T00:45:07.311Z,89.16
2017-03-18T00:46:07.847Z,89.48
2017-03-18T00:47:08.375Z,90.02
2017-03-18T00:48:08.908Z,90.45
2017-03-18T00:49:09.450Z,91.28
2017-03-18T00:50:09.988Z,92.38
2017-03-18T00:51:10.520Z,91.92
2017-03-18T00:52:11.204Z,91.07
2017-03-18T00:53:11.732Z,91.95
2017-03-18T00:54:12.119Z,92.73
2017-03-18T00:55:12.651Z,91.71
2017-03-18T00:56:13.188Z,93.13
2017-03-18T00:57:13.720Z,93.24
2017-03-18T00:58:14.258Z,93.29
2017-03-18T00:59:14.789Z,93.24
2017-03-18T01:00:15.325Z,93.37
2017-03-18T01:01:15.852Z,93.35
2017-03-18T01:02:16.536Z,92.22
2017-03-18T01:03:16.922Z,93.29
2017-03-18T01:04:17.599Z,93.43
2017-03-18T01:05:17.978Z,94.04
2017-03-18T01:06:18.663Z,94.72
2017-03-18T01:07:19.064Z,94.64
2017-03-18T01:08:19.576Z,94.67
2017-03-18T01:09:20.111Z,93.08
2017-03-18T01:10:20.644Z,92.81
2017-03-18T01:11:21.182Z,92.76
2017-03-18T01:12:21.707Z,93.08
2017-03-18T01:13:22.236Z,93.91
2017-03-18T01:14:22.768Z,94.42
2017-03-18T01:15:23.308Z,94.07
2017-03-18T01:16:23.849Z,93.24
2017-03-18T01:17:24.369Z,92.49
2017-03-18T01:18:24.931Z,92.19
2017-03-18T01:19:25.431Z,90.98
2017-03-18T01:20:25.958Z,90.85
2017-03-18T01:21:26.495Z,91.52
2017-03-18T01:22:27.029Z,91.68
2017-03-18T01:23:27.558Z,91.92
2017-03-18T01:24:28.088Z,91.52
2017-03-18T01:25:28.624Z,90.55
2017-03-18T01:26:29.156Z,90.96
2017-03-18T01:27:29.690Z,90.69
2017-03-18T01:28:30.371Z,91.07
2017-03-18T01:29:30.765Z,90.34
2017-03-18T01:30:31.299Z,90.42
2017-03-18T01:31:31.830Z,90.07
2017-03-18T01:32:32.361Z,90.77
2017-03-18T01:33:32.899Z,90.47
2017-03-18T01:34:33.431Z,90.26
2017-03-18T01:35:33.964Z,89.59
2017-03-18T01:36:34.650Z,90.77
2017-03-18T01:37:35.032Z,90.77
2017-03-18T01:38:35.716Z,90.13
2017-03-18T01:39:36.244Z,89.70
2017-03-18T01:40:36.631Z,89.99
2017-03-18T01:41:37.162Z,90.15
2017-03-18T01:42:37.704Z,89.88
2017-03-18T01:43:38.232Z,89.19
2017-03-18T01:44:38.761Z,88.62
2017-03-18T01:45:39.294Z,88.73
2017-03-18T01:46:39.824Z,89.70
2017-03-18T01:47:40.359Z,89.72
2017-03-18T01:48:40.896Z,89.78
2017-03-18T01:49:41.424Z,89.22
2017-03-18T01:50:41.958Z,89.03
2017-03-18T01:51:42.484Z,89.19
2017-03-18T01:52:43.027Z,88.71
2017-03-18T01:53:43.555Z,88.76
2017-03-18T01:54:44.132Z,89.40
2017-03-18T01:55:44.628Z,88.95
2017-03-18T01:56:45.149Z,87.00
2017-03-18T01:57:45.687Z,87.88
2017-03-18T01:58:46.215Z,87.93
2017-03-18T01:59:46.749Z,88.81
2017-03-18T02:00:47.434Z,88.50
2017-03-18T02:01:47.816Z,89.14
2017-03-18T02:02:48.498Z,89.99
2017-03-18T02:03:48.880Z,90.50
2017-03-18T02:04:49.413Z,90.18
2017-03-18T02:05:49.941Z,89.91
2017-03-18T02:06:50.619Z,90.61
2017-03-18T02:07:51.002Z,89.99
2017-03-18T02:08:51.538Z,89.48
2017-03-18T02:09:52.073Z,88.68
2017-03-18T02:10:52.612Z,88.60
2017-03-18T02:11:53.146Z,88.25
2017-03-18T02:12:53.685Z,89.08
2017-03-18T02:13:54.215Z,88.97
2017-03-18T02:14:54.750Z,89.94
2017-03-18T02:15:55.284Z,88.89
2017-03-18T02:16:55.816Z,88.52
2017-03-18T02:17:56.351Z,89.14
2017-03-18T02:18:56.883Z,89.29
2017-03-18T02:19:57.410Z,90.39
2017-03-18T02:20:57.940Z,89.29
2017-03-18T02:21:58.480Z,88.62
2017-03-18T02:22:59.007Z,88.62
2017-03-18T02:23:59.544Z,90.31
2017-03-18T02:25:00.077Z,90.05
2017-03-18T02:26:00.609Z,89.35
2017-03-18T02:27:01.144Z,90.07
2017-03-18T02:28:01.675Z,89.22
2017-03-18T02:29:02.207Z,89.03
2017-03-18T02:30:02.741Z,89.19
2017-03-18T02:31:03.276Z,90.58
2017-03-18T02:32:03.802Z,89.03
2017-03-18T02:33:04.336Z,89.64
2017-03-18T02:34:04.876Z,90.77
2017-03-18T02:35:05.410Z,90.15
2017-03-18T02:36:05.935Z,90.07
2017-03-18T02:37:06.491Z,90.93
2017-03-18T02:38:07.010Z,91.79
2017-03-18T02:39:07.535Z,90.26
2017-03-18T02:40:08.065Z,90.61
2017-03-18T02:41:08.598Z,88.92
2017-03-18T02:42:09.133Z,90.90
2017-03-18T02:43:09.677Z,88.62
2017-03-18T02:44:10.200Z,88.25
2017-03-18T02:45:10.736Z,86.12
2017-03-18T02:46:11.266Z,88.62
2017-03-18T02:47:11.796Z,88.36
2017-03-18T02:48:12.331Z,87.69
2017-03-18T02:49:12.862Z,89.16
2017-03-18T02:50:13.395Z,90.15
2017-03-18T02:51:13.937Z,90.58
2017-03-18T02:52:14.471Z,89.80
2017-03-18T02:53:15.011Z,89.59
2017-03-18T02:54:15.542Z,90.15
2017-03-18T02:55:16.075Z,91.07
2017-03-18T02:56:16.605Z,89.16
2017-03-18T02:57:17.150Z,90.42
2017-03-18T02:58:17.673Z,89.97
2017-03-18T02:59:18.203Z,89.62
2017-03-18T03:00:18.732Z,89.06
2017-03-18T03:01:19.275Z,89.91
2017-03-18T03:02:19.795Z,90.61
2017-03-18T03:03:20.334Z,89.45
2017-03-18T03:04:20.860Z,89.45
2017-03-18T03:05:21.391Z,90.85
2017-03-18T03:06:21.925Z,90.98
2017-03-18T03:07:22.455Z,91.41
2017-03-18T03:08:22.987Z,91.41
2017-03-18T03:09:23.535Z,91.55
2017-03-18T03:10:24.054Z,89.59
2017-03-18T03:11:24.589Z,90.69
2017-03-18T03:12:25.126Z,91.09
2017-03-18T03:13:25.654Z,92.43
2017-03-18T03:14:26.192Z,91.68
2017-03-18T03:15:26.716Z,92.32
2017-03-18T03:16:27.265Z,91.44
2017-03-18T03:17:27.781Z,90.61
2017-03-18T03:18:28.316Z,91.09
2017-03-18T03:19:28.851Z,91.95
2017-03-18T03:20:29.379Z,91.33
2017-03-18T03:21:29.914Z,90.20
2017-03-18T03:22:30.450Z,90.90
2017-03-18T03:23:30.975Z,90.28
2017-03-18T03:24:31.508Z,87.69
2017-03-18T03:25:32.042Z,89.56
2017-03-18T03:26:32.581Z,89.54
2017-03-18T03:27:33.121Z,87.77
2017-03-18T03:28:33.652Z,89.06
2017-03-18T03:29:34.186Z,87.69
2017-03-18T03:30:34.714Z,89.00
2017-03-18T03:31:35.247Z,89.48
2017-03-18T03:32:35.794Z,89.22
2017-03-18T03:33:36.339Z,89.56
2017-03-18T03:34:36.877Z,87.77
2017-03-18T03:35:37.413Z,87.67
2017-03-18T03:36:37.931Z,89.24
2017-03-18T03:37:38.466Z,89.83
2017-03-18T03:38:38.992Z,89.35
2017-03-18T03:39:39.522Z,89.29
2017-03-18T03:40:40.055Z,87.43
2017-03-18T03:41:40.590Z,88.97
2017-03-18T03:42:41.118Z,88.76
2017-03-18T03:43:41.660Z,88.57
2017-03-18T03:44:42.188Z,89.00
2017-03-18T03:45:42.733Z,88.07
2017-03-18T03:46:43.247Z,87.18
2017-03-18T03:47:43.777Z,89.00
2017-03-18T03:48:44.311Z,88.36
2017-03-18T03:49:44.844Z,89.03
2017-03-18T03:50:45.376Z,88.76
2017-03-18T03:51:45.909Z,87.69
2017-03-18T03:52:46.441Z,85.61
2017-03-18T03:53:46.980Z,86.28
2017-03-18T03:54:47.507Z,86.68
2017-03-18T03:55:48.038Z,88.23
2017-03-18T03:56:48.568Z,86.87
2017-03-18T03:57:49.104Z,86.17
2017-03-18T03:58:49.637Z,88.20
2017-03-18T03:59:50.177Z,87.82
2017-03-18T04:00:50.698Z,87.34
2017-03-18T04:01:51.235Z,88.07
2017-03-18T04:02:51.763Z,87.90
2017-03-18T04:03:52.290Z,87.48
2017-03-18T04:04:52.823Z,87.45
2017-03-18T04:05:53.364Z,88.50
2017-03-18T04:06:53.893Z,87.08
2017-03-18T04:07:54.433Z,88.36
2017-03-18T04:08:54.962Z,87.43
2017-03-18T04:09:55.495Z,87.02
2017-03-18T04:10:56.025Z,88.23
2017-03-18T04:11:56.564Z,88.33
2017-03-18T04:12:57.095Z,87.26
2017-03-18T04:13:57.782Z,87.29
2017-03-18T04:14:58.172Z,87.69
2017-03-18T04:15:58.705Z,87.16
2017-03-18T04:16:59.238Z,86.54
2017-03-18T04:17:59.776Z,87.59
2017-03-18T04:19:00.303Z,87.93
2017-03-18T04:20:00.838Z,86.91
2017-03-18T04:21:01.367Z,88.15
2017-03-18T04:22:02.048Z,89.00
2017-03-18T04:23:02.440Z,90.05
2017-03-18T04:24:02.980Z,89.06
2017-03-18T04:25:03.502Z,90.09
2017-03-18T04:26:04.187Z,89.78
2017-03-18T04:27:04.572Z,89.88
2017-03-18T04:28:05.252Z,90.47
2017-03-18T04:29:05.635Z,90.13
2017-03-18T04:30:06.171Z,91.25
2017-03-18T04:31:06.696Z,90.07
2017-03-18T04:32:07.227Z,89.72
2017-03-18T04:33:07.762Z,89.56
2017-03-18T04:34:08.302Z,89.88
2017-03-18T04:35:08.827Z,91.14
2017-03-18T04:36:09.371Z,90.96
2017-03-18T04:37:09.895Z,91.38
2017-03-18T04:38:10.431Z,90.85
2017-03-18T04:39:10.963Z,90.36
2017-03-18T04:40:11.524Z,91.33
2017-03-18T04:41:12.029Z,91.22
2017-03-18T04:42:12.563Z,91.36
2017-03-18T04:43:13.097Z,91.57
2017-03-18T04:44:13.626Z,91.97
2017-03-18T04:45:14.155Z,92.46
2017-03-18T04:46:14.692Z,91.95
2017-03-18T04:47:15.224Z,91.38
2017-03-18T04:48:15.758Z,91.47
2017-03-18T04:49:16.432Z,92.14
2017-03-18T04:50:16.823Z,92.19
2017-03-18T04:51:17.352Z,92.11
2017-03-18T04:52:17.898Z,91.25
2017-03-18T04:53:18.421Z,92.27
2017-03-18T04:54:18.965Z,92.30
2017-03-18T04:55:19.491Z,92.35
2017-03-18T04:56:20.038Z,92.78
2017-03-18T04:57:20.563Z,92.70
2017-03-18T04:58:21.100Z,92.22
2017-03-18T04:59:21.632Z,92.35
2017-03-18T05:00:22.171Z,92.08
2017-03-18T05:01:22.693Z,91.25
2017-03-18T05:02:23.232Z,91.97
2017-03-18T05:03:23.771Z,91.90
2017-03-18T05:04:24.303Z,91.82
2017-03-18T05:05:24.837Z,92.57
2017-03-18T05:06:25.362Z,92.70
2017-03-18T05:07:25.894Z,93.24
2017-03-18T05:08:26.428Z,93.05
2017-03-18T05:09:26.960Z,92.97
2017-03-18T05:10:27.500Z,93.64
2017-03-18T05:11:28.026Z,93.83
2017-03-18T05:12:28.560Z,94.12
2017-03-18T05:13:29.093Z,94.56
2017-03-18T05:14:29.627Z,94.12
2017-03-18T05:15:30.302Z,93.83
2017-03-18T05:16:30.688Z,93.83
2017-03-18T05:17:31.227Z,94.26
2017-03-18T05:18:31.767Z,94.64
2017-03-18T05:19:32.284Z,94.86
2017-03-18T05:20:32.818Z,95.04
2017-03-18T05:21:33.356Z,94.93
2017-03-18T05:22:33.886Z,95.15
2017-03-18T05:23:34.422Z,95.39
2017-03-18T05:24:35.098Z,95.69
2017-03-18T05:25:35.480Z,95.53
2017-03-18T05:26:36.015Z,95.85
2017-03-18T05:27:36.554Z,96.17
2017-03-18T05:28:37.225Z,96.15
2017-03-18T05:29:37.624Z,96.15
2017-03-18T05:30:38.150Z,96.23
2017-03-18T05:31:38.673Z,96.31
2017-03-18T05:32:39.209Z,96.42
2017-03-18T05:33:39.742Z,96.50
2017-03-18T05:34:40.280Z,96.66
2017-03-18T05:35:40.823Z,96.91
2017-03-18T05:36:41.354Z,96.85
2017-03-18T05:37:41.883Z,96.96
2017-03-18T05:38:42.427Z,96.83
2017-03-18T05:39:42.950Z,96.83
2017-03-18T05:40:43.484Z,96.96
2017-03-18T05:41:44.018Z,96.93
2017-03-18T05:42:44.562Z,96.74
2017-03-18T05:43:45.121Z,96.74
2017-03-18T05:44:45.617Z,96.85
2017-03-18T05:45:46.147Z,97.15
2017-03-18T05:46:46.683Z,97.34
2017-03-18T05:47:47.216Z,97.53
2017-03-18T05:48:47.750Z,97.55
2017-03-18T05:49:48.274Z,97.50
2017-03-18T05:50:48.807Z,97.53
2017-03-18T05:51:49.338Z,97.53
2017-03-18T05:52:49.874Z,97.50
2017-03-18T05:53:50.407Z,97.47
2017-03-18T05:54:50.940Z,97.45
2017-03-18T05:55:51.474Z,97.69
2017-03-18T05:56:52.002Z,97.88
2017-03-18T05:57:52.532Z,98.02
2017-03-18T05:58:53.075Z,97.93
2017-03-18T05:59:53.602Z,97.88
2017-03-18T06:00:54.136Z,97.72
2017-03-18T06:01:54.668Z,97.66
2017-03-18T06:02:55.205Z,97.72
2017-03-18T06:03:55.733Z,97.66
2017-03-18T06:04:56.282Z,97.58
2017-03-18T06:05:56.806Z,97.47
2017-03-18T06:06:57.480Z,97.45
2017-03-18T06:07:57.867Z,97.26
2017-03-18T06:08:58.401Z,97.02
2017-03-18T06:09:58.939Z,96.93
2017-03-18T06:10:59.478Z,96.72
2017-03-18T06:11:59.996Z,96.69
2017-03-18T06:13:00.530Z,96.58
2017-03-18T06:14:01.065Z,96.50
2017-03-18T06:15:01.603Z,96.53
2017-03-18T06:16:02.130Z,96.34
2017-03-18T06:17:02.675Z,96.53
2017-03-18T06:18:03.207Z,96.26
2017-03-18T06:19:03.740Z,96.02
2017-03-18T06:20:04.278Z,96.13
2017-03-18T06:21:04.821Z,96.09
2017-03-18T06:22:05.373Z,96.28
2017-03-18T06:23:05.897Z,96.31
2017-03-18T06:24:06.411Z,96.45
2017-03-18T06:25:06.939Z,96.42
2017-03-18T06:26:07.478Z,96.28
2017-03-18T06:27:08.006Z,96.36
2017-03-18T06:28:08.537Z,95.83
2017-03-18T06:29:09.078Z,95.10
2017-03-18T06:30:09.610Z,94.91
2017-03-18T06:31:10.283Z,95.26
2017-03-18T06:32:10.669Z,95.42
2017-03-18T06:33:11.211Z,95.28
2017-03-18T06:34:11.733Z,95.37
2017-03-18T06:35:12.274Z,95.28
2017-03-18T06:36:12.800Z,95.31
2017-03-18T06:37:13.481Z,95.58
2017-03-18T06:38:13.865Z,95.07
2017-03-18T06:39:14.416Z,95.28
2017-03-18T06:40:14.932Z,95.18
2017-03-18T06:41:15.468Z,94.96
2017-03-18T06:42:15.998Z,94.02
2017-03-18T06:43:16.537Z,94.02
2017-03-18T06:44:17.063Z,94.23
2017-03-18T06:45:17.602Z,93.94
2017-03-18T06:46:18.129Z,94.37
2017-03-18T06:47:18.669Z,94.53
2017-03-18T06:48:19.194Z,94.42
2017-03-18T06:49:19.742Z,94.42
2017-03-18T06:50:20.407Z,94.37
2017-03-18T06:51:20.797Z,93.78
2017-03-18T06:52:21.328Z,93.48
2017-03-18T06:53:21.857Z,93.67
2017-03-18T06:54:22.397Z,92.91
2017-03-18T06:55:22.936Z,92.68
2017-03-18T06:56:23.461Z,93.05
2017-03-18T06:57:24.004Z,92.27
2017-03-18T06:58:24.532Z,92.40
2017-03-18T06:59:25.069Z,92.30
2017-03-18T07:00:25.602Z,92.59
2017-03-18T07:01:26.128Z,92.16
2017-03-18T07:02:26.664Z,92.11
2017-03-18T07:03:27.198Z,91.20
2017-03-18T07:04:27.724Z,91.65
2017-03-18T07:05:28.260Z,92.11
2017-03-18T07:06:28.796Z,91.60
2017-03-18T07:07:29.320Z,91.86
2017-03-18T07:08:29.847Z,91.73
2017-03-18T07:09:30.381Z,92.01
2017-03-18T07:10:30.910Z,92.43
2017-03-18T07:11:31.737Z,91.57
2017-03-18T07:12:31.975Z,92.05
2017-03-18T07:13:32.515Z,91.44
2017-03-18T07:14:33.035Z,91.09
2017-03-18T07:15:33.569Z,90.85
2017-03-18T07:16:34.100Z,90.34
2017-03-18T07:17:34.634Z,91.30
2017-03-18T07:18:35.166Z,90.82
2017-03-18T07:19:35.708Z,90.98
2017-03-18T07:20:36.239Z,90.47
2017-03-18T07:21:36.764Z,90.53
2017-03-18T07:22:37.292Z,90.53
2017-03-18T07:23:37.873Z,90.98
2017-03-18T07:24:38.358Z,90.93
2017-03-18T07:25:38.897Z,90.80
2017-03-18T07:26:39.429Z,91.09
2017-03-18T07:27:39.952Z,90.82
2017-03-18T07:28:40.483Z,90.47
2017-03-18T07:29:41.015Z,90.47
2017-03-18T07:30:41.543Z,91.25
2017-03-18T07:31:42.228Z,90.93
2017-03-18T07:32:42.619Z,91.25
2017-03-18T07:33:43.142Z,91.57
2017-03-18T07:34:43.669Z,91.11
2017-03-18T07:35:44.204Z,90.77
2017-03-18T07:36:44.736Z,90.58
2017-03-18T07:37:45.427Z,90.85
2017-03-18T07:38:45.810Z,90.34
2017-03-18T07:39:46.353Z,90.55
2017-03-18T07:40:46.885Z,90.71
2017-03-18T07:41:47.418Z,90.09
2017-03-18T07:42:47.952Z,89.64
2017-03-18T07:43:48.482Z,89.56
2017-03-18T07:44:49.017Z,89.24
2017-03-18T07:45:49.549Z,89.06
2017-03-18T07:46:50.084Z,89.24
2017-03-18T07:47:50.614Z,89.37
2017-03-18T07:48:51.144Z,88.41
2017-03-18T07:49:51.824Z,89.16
2017-03-18T07:50:52.507Z,88.39
2017-03-18T07:51:52.748Z,89.03
2017-03-18T07:52:53.306Z,88.97
2017-03-18T07:53:53.811Z,89.24
2017-03-18T07:54:54.340Z,89.35
2017-03-18T07:55:54.882Z,89.00
2017-03-18T07:56:55.392Z,88.54
2017-03-18T07:57:55.927Z,88.41
2017-03-18T07:58:56.465Z,88.89
2017-03-18T07:59:56.994Z,88.84
2017-03-18T08:00:57.522Z,89.51
2017-03-18T08:01:58.074Z,88.97
2017-03-18T08:02:58.593Z,89.32
2017-03-18T08:03:59.126Z,89.48
2017-03-18T08:04:59.654Z,90.13
2017-03-18T08:06:00.190Z,88.97
2017-03-18T08:07:00.718Z,89.45
2017-03-18T08:08:01.401Z,89.59
2017-03-18T08:09:01.792Z,89.91
2017-03-18T08:10:02.313Z,89.99
2017-03-18T08:11:02.838Z,90.71
2017-03-18T08:12:03.372Z,90.36
2017-03-18T08:13:05.707Z,89.80
2017-03-18T08:14:04.447Z,90.02
2017-03-18T08:15:04.966Z,90.36
2017-03-18T08:16:05.507Z,90.61
2017-03-18T08:17:06.048Z,91.11
2017-03-18T08:18:06.572Z,89.56
2017-03-18T08:19:07.103Z,89.56
2017-03-18T08:20:07.648Z,90.15
2017-03-18T08:21:08.323Z,89.40
2017-03-18T08:22:08.721Z,90.34
2017-03-18T08:23:09.244Z,89.86
2017-03-18T08:24:09.778Z,89.22
2017-03-18T08:25:10.313Z,89.14
2017-03-18T08:26:10.855Z,89.83
2017-03-18T08:27:11.372Z,89.43
2017-03-18T08:28:11.917Z,89.94
2017-03-18T08:29:12.436Z,90.15
2017-03-18T08:30:12.967Z,89.35
2017-03-18T08:31:13.496Z,89.29
2017-03-18T08:32:14.030Z,90.20
2017-03-18T08:33:14.559Z,89.37
2017-03-18T08:34:15.092Z,89.08
2017-03-18T08:35:15.622Z,89.32
2017-03-18T08:36:16.153Z,89.86
2017-03-18T08:37:16.831Z,89.03
2017-03-18T08:38:17.219Z,88.36
2017-03-18T08:39:17.749Z,89.24
2017-03-18T08:40:18.290Z,87.96
2017-03-18T08:41:18.813Z,88.87
2017-03-18T08:42:19.361Z,89.16
2017-03-18T08:43:19.877Z,88.84
2017-03-18T08:44:20.409Z,89.08
2017-03-18T08:45:20.943Z,89.75
2017-03-18T08:46:21.471Z,88.97
2017-03-18T08:47:22.005Z,89.32
2017-03-18T08:48:22.542Z,88.76
2017-03-18T08:49:23.093Z,89.99
2017-03-18T08:50:23.610Z,89.70
2017-03-18T08:51:24.131Z,89.99
2017-03-18T08:52:24.664Z,89.83
2017-03-18T08:53:25.199Z,90.58
2017-03-18T08:54:25.731Z,90.36
2017-03-18T08:55:26.254Z,90.96
2017-03-18T08:56:26.785Z,90.13
2017-03-18T08:57:27.317Z,89.80
2017-03-18T08:58:27.852Z,89.94
2017-03-18T08:59:28.385Z,90.47
2017-03-18T09:00:28.918Z,90.77
2017-03-18T09:01:29.456Z,89.56
2017-03-18T09:02:29.994Z,88.65
2017-03-18T09:03:30.524Z,89.67
2017-03-18T09:04:31.064Z,89.48
2017-03-18T09:05:31.585Z,90.07
2017-03-18T09:06:32.121Z,88.15
2017-03-18T09:07:32.648Z,88.57
2017-03-18T09:08:33.189Z,87.29
2017-03-18T09:09:33.722Z,88.36
2017-03-18T09:10:34.247Z,87.82
2017-03-18T09:11:34.776Z,88.92
2017-03-18T09:12:35.319Z,88.65
2017-03-18T09:13:35.839Z,88.20
2017-03-18T09:14:36.384Z,87.59
2017-03-18T09:15:37.053Z,87.40
2017-03-18T09:16:37.445Z,87.67
2017-03-18T09:17:37.970Z,89.24
2017-03-18T09:18:38.508Z,87.59
2017-03-18T09:19:39.035Z,89.29
2017-03-18T09:20:39.569Z,90.07
2017-03-18T09:21:40.099Z,88.07
2017-03-18T09:22:40.634Z,90.26
2017-03-18T09:23:41.167Z,90.39
2017-03-18T09:24:41.704Z,90.45
2017-03-18T09:25:42.228Z,91.60
2017-03-18T09:26:42.765Z,91.52
2017-03-18T09:27:43.308Z,91.33
2017-03-18T09:28:43.986Z,91.33
2017-03-18T09:29:44.362Z,91.73
2017-03-18T09:30:44.892Z,91.73
2017-03-18T09:31:45.424Z,91.09
2017-03-18T09:32:45.971Z,91.65
2017-03-18T09:33:46.497Z,91.33
2017-03-18T09:34:47.028Z,91.36
2017-03-18T09:35:47.550Z,91.73
2017-03-18T09:36:48.231Z,92.49
2017-03-18T09:37:48.626Z,92.57
2017-03-18T09:38:49.157Z,92.95
2017-03-18T09:39:49.689Z,93.35
2017-03-18T09:40:50.221Z,93.85
2017-03-18T09:41:50.758Z,93.21
2017-03-18T09:42:51.314Z,93.99
2017-03-18T09:43:51.825Z,94.42
2017-03-18T09:44:52.361Z,94.10
2017-03-18T09:45:52.895Z,93.70
2017-03-18T09:46:53.572Z,93.85
2017-03-18T09:47:53.956Z,94.10
2017-03-18T09:48:54.491Z,94.31
2017-03-18T09:49:55.024Z,94.18
2017-03-18T09:50:55.548Z,94.53
2017-03-18T09:51:56.077Z,94.04
2017-03-18T09:52:56.613Z,94.26
2017-03-18T09:53:57.145Z,93.78
2017-03-18T09:54:57.684Z,94.67
2017-03-18T09:55:58.208Z,94.02
2017-03-18T09:56:58.743Z,94.48
2017-03-18T09:57:59.272Z,95.15
2017-03-18T09:58:59.811Z,94.40
2017-03-18T10:00:00.338Z,94.45
2017-03-18T10:01:00.874Z,94.45
2017-03-18T10:02:01.405Z,94.77
2017-03-18T10:03:01.946Z,95.34
2017-03-18T10:04:02.467Z,95.15
2017-03-18T10:05:03.006Z,95.26
2017-03-18T10:06:03.537Z,95.26
2017-03-18T10:07:04.064Z,95.15
2017-03-18T10:08:04.597Z,95.18
2017-03-18T10:09:05.137Z,95.15
2017-03-18T10:10:05.663Z,95.42
2017-03-18T10:11:06.198Z,95.23
2017-03-18T10:12:06.734Z,95.42
2017-03-18T10:13:07.269Z,95.58
2017-03-18T10:14:07.795Z,95.64
2017-03-18T10:15:08.334Z,95.88
2017-03-18T10:16:08.860Z,95.94
2017-03-18T10:17:09.389Z,96.20
2017-03-18T10:18:09.923Z,96.09
2017-03-18T10:19:10.452Z,96.20
2017-03-18T10:20:10.990Z,96.36
2017-03-18T10:21:11.530Z,96.66
2017-03-18T10:22:12.064Z,96.55
2017-03-18T10:23:12.750Z,96.02
2017-03-18T10:24:13.139Z,96.02
2017-03-18T10:25:13.674Z,95.85
2017-03-18T10:26:14.349Z,95.75
2017-03-18T10:27:14.744Z,95.88
2017-03-18T10:28:15.274Z,95.69
2017-03-18T10:29:15.809Z,95.10
2017-03-18T10:30:16.338Z,94.83
2017-03-18T10:31:16.864Z,95.50
2017-03-18T10:32:17.413Z,95.69
2017-03-18T10:33:17.941Z,95.04
2017-03-18T10:34:18.461Z,95.07
2017-03-18T10:35:19.004Z,93.72
2017-03-18T10:36:19.524Z,93.67
2017-03-18T10:37:20.065Z,94.37
2017-03-18T10:38:20.585Z,94.42
2017-03-18T10:39:21.121Z,94.75
2017-03-18T10:40:21.650Z,95.01
2017-03-18T10:41:22.184Z,93.40
2017-03-18T10:43:23.252Z,93.89
2017-03-18T10:44:23.785Z,90.39
2017-03-18T10:45:24.330Z,91.68
2017-03-18T10:46:24.847Z,92.32
2017-03-18T10:47:25.385Z,90.39
2017-03-18T10:48:25.916Z,90.69
2017-03-18T10:49:26.437Z,90.18
2017-03-18T10:50:26.970Z,90.85
2017-03-18T10:51:27.655Z,90.69
2017-03-18T10:52:28.036Z,91.14
2017-03-18T10:53:28.579Z,90.23
2017-03-18T10:54:29.100Z,89.51
2017-03-18T10:55:29.628Z,90.63
2017-03-18T10:56:30.167Z,88.33
2017-03-18T10:57:30.691Z,89.88
2017-03-18T10:58:31.231Z,90.58
2017-03-18T10:59:31.753Z,89.83
2017-03-18T11:00:32.280Z,90.09
2017-03-18T11:01:32.828Z,88.54
2017-03-18T11:02:33.352Z,90.28
2017-03-18T11:03:33.891Z,89.48
2017-03-18T11:04:34.425Z,90.02
2017-03-18T11:05:34.961Z,90.13
2017-03-18T11:06:35.497Z,89.99
2017-03-18T11:07:36.038Z,89.27
2017-03-18T11:08:36.565Z,89.70
2017-03-18T11:09:37.396Z,87.93
2017-03-18T11:10:37.667Z,88.09
2017-03-18T11:11:38.173Z,88.31
2017-03-18T11:12:38.699Z,88.97
2017-03-18T11:13:39.229Z,85.93
2017-03-18T11:14:39.758Z,86.46
2017-03-18T11:15:40.300Z,87.16
2017-03-18T11:16:40.820Z,86.94
2017-03-18T11:17:41.367Z,86.79
2017-03-18T11:18:41.884Z,85.88
2017-03-18T11:19:42.418Z,86.71
2017-03-18T11:20:42.947Z,87.56
2017-03-18T11:21:43.484Z,86.52
2017-03-18T11:22:44.015Z,86.41
2017-03-18T11:23:44.693Z,88.01
2017-03-18T11:24:45.078Z,85.69
2017-03-18T11:25:45.755Z,85.72
2017-03-18T11:26:46.140Z,86.52
2017-03-18T11:27:46.684Z,84.39
2017-03-18T11:28:47.210Z,84.97
2017-03-18T11:29:47.737Z,86.49
2017-03-18T11:30:48.268Z,87.34
2017-03-18T11:31:48.808Z,84.47
2017-03-18T11:32:49.331Z,84.42
2017-03-18T11:33:50.011Z,84.52
2017-03-18T11:34:50.405Z,84.55
2017-03-18T11:35:50.924Z,85.30
2017-03-18T11:36:51.458Z,86.01
2017-03-18T11:37:51.996Z,85.27
2017-03-18T11:38:52.518Z,81.74
2017-03-18T11:39:53.049Z,84.02
2017-03-18T11:40:53.583Z,82.53
2017-03-18T11:41:54.113Z,82.16
2017-03-18T11:42:54.643Z,81.32
2017-03-18T11:43:55.188Z,80.92
2017-03-18T11:44:55.718Z,82.27
2017-03-18T11:45:56.252Z,80.02
2017-03-18T11:46:56.784Z,80.84
2017-03-18T11:47:57.324Z,78.89
2017-03-18T11:48:57.850Z,78.97
2017-03-18T11:49:58.391Z,78.17
2017-03-18T11:50:58.915Z,80.60
2017-03-18T11:51:59.469Z,80.44
2017-03-18T11:52:59.982Z,78.89
2017-03-18T11:54:00.526Z,78.36
2017-03-18T11:55:01.432Z,78.97
2017-03-18T11:56:01.584Z,80.49
2017-03-18T11:57:02.107Z,79.41
2017-03-18T11:58:02.642Z,80.10
2017-03-18T11:59:03.170Z,76.75
2017-03-18T12:00:03.713Z,78.99
2017-03-18T12:01:04.234Z,76.34
2017-03-18T12:02:04.769Z,78.54
2017-03-18T12:03:05.598Z,78.70
2017-03-18T12:04:05.842Z,79.36
2017-03-18T12:05:06.512Z,80.65
2017-03-18T12:06:06.910Z,78.33
2017-03-18T12:07:07.432Z,78.78
2017-03-18T12:08:07.962Z,79.57
2017-03-18T12:09:08.494Z,79.89
2017-03-18T12:10:09.030Z,78.15
2017-03-18T12:11:09.562Z,77.20
2017-03-18T12:12:10.101Z,77.04
2017-03-18T12:13:10.631Z,77.54
2017-03-18T12:14:11.935Z,78.39
2017-03-18T12:15:11.688Z,77.83
2017-03-18T12:16:12.229Z,78.65
2017-03-18T12:17:12.753Z,77.57
2017-03-18T12:18:13.291Z,77.54
2017-03-18T12:19:13.834Z,77.70
2017-03-18T12:20:14.352Z,79.89
2017-03-18T12:21:14.883Z,80.68
2017-03-18T12:22:15.410Z,78.62
2017-03-18T12:23:15.945Z,82.14
2017-03-18T12:24:16.629Z,84.09
2017-03-18T12:25:17.022Z,85.58
2017-03-18T12:26:17.558Z,85.58
2017-03-18T12:27:18.085Z,84.31
2017-03-18T12:28:18.621Z,84.97
2017-03-18T12:29:19.153Z,84.66
2017-03-18T12:30:19.687Z,85.27
2017-03-18T12:31:20.212Z,84.87
2017-03-18T12:32:20.744Z,83.14
2017-03-18T12:33:21.279Z,82.61
2017-03-18T12:34:21.815Z,83.01
2017-03-18T12:35:22.346Z,82.85
2017-03-18T12:36:22.881Z,82.43
2017-03-18T12:37:23.405Z,82.90
2017-03-18T12:38:23.948Z,82.43
2017-03-18T12:39:24.474Z,82.03
2017-03-18T12:40:25.008Z,80.76
2017-03-18T12:41:25.529Z,81.21
2017-03-18T12:42:26.067Z,81.90
2017-03-18T12:43:26.599Z,81.52
2017-03-18T12:44:27.126Z,79.89
2017-03-18T12:45:27.667Z,79.36
2017-03-18T12:46:28.337Z,80.79
2017-03-18T12:47:28.723Z,79.63
2017-03-18T12:48:29.264Z,80.02
2017-03-18T12:49:29.787Z,80.39
2017-03-18T12:50:30.328Z,79.75
2017-03-18T12:51:30.849Z,81.40
2017-03-18T12:52:31.391Z,80.71
2017-03-18T12:53:31.924Z,82.90
2017-03-18T12:54:32.449Z,82.48
2017-03-18T12:55:33.128Z,81.92
2017-03-18T12:56:33.520Z,80.10
2017-03-18T12:57:34.050Z,79.31
2017-03-18T12:58:34.582Z,81.98
2017-03-18T12:59:35.114Z,80.39
2017-03-18T13:00:35.656Z,81.52